Time;durP1;ratioP1;P1;durP2;ratioP2;P2;SDS_P1;SDS_P2;PMS_P1;PMS_P2;Temp;Humidity;BMP_temperature;BMP_pressure;BME280_temperature;BME280_humidity;BME280_pressure;Samples;Min_cycle;Max_cycle;Signal;HPM_P1;HPM_P2
2023/08/05 00:02:24;;;;;;;9.57;6.20;;;14.20;99.90;;;15.68;100.00;100592.66;5021900;28;20509;-78
2023/08/05 00:04:50;;;;;;;14.55;7.10;;;14.20;99.90;;;15.60;100.00;100571.06;5020562;28;20041;-79
2023/08/05 00:07:16;;;;;;;10.95;6.65;;;14.20;99.90;;;15.64;100.00;100569.47;5029606;28;20041;-78
2023/08/05 00:09:42;;;;;;;11.77;6.80;;;14.10;99.90;;;15.66;100.00;100582.97;5031150;28;20041;-79
2023/08/05 00:12:08;;;;;;;15.40;6.80;;;14.00;99.90;;;15.62;100.00;100585.38;5031291;28;20112;-79
2023/08/05 00:14:34;;;;;;;13.10;6.45;;;14.00;99.90;;;15.59;100.00;100596.06;5031779;28;20034;-79
2023/08/05 00:17:00;;;;;;;9.80;6.28;;;13.90;99.90;;;15.49;100.00;100588.50;5023324;28;20042;-78
2023/08/05 00:19:26;;;;;;;13.27;7.18;;;13.90;99.90;;;15.48;100.00;100571.16;5026711;28;20046;-78
2023/08/05 00:21:52;;;;;;;8.52;6.20;;;13.90;99.90;;;15.42;100.00;100579.59;5031854;28;20071;-78
2023/08/05 00:24:17;;;;;;;12.55;6.20;;;13.80;99.90;;;15.45;100.00;100595.59;5034515;28;20097;-79
2023/08/05 00:26:43;;;;;;;10.15;5.88;;;13.70;99.90;;;15.32;100.00;100597.56;5026886;28;20052;-79
2023/08/05 00:29:09;;;;;;;9.18;5.40;;;13.60;99.90;;;15.23;100.00;100605.38;5031142;28;20203;-78
2023/08/05 00:31:35;;;;;;;14.15;6.57;;;13.50;99.90;;;15.14;100.00;100590.41;5021109;28;20069;-78
2023/08/05 00:34:01;;;;;;;11.77;7.20;;;13.60;99.90;;;15.19;100.00;100579.50;5031050;28;20048;-79
2023/08/05 00:36:27;;;;;;;11.13;7.55;;;13.60;99.90;;;15.07;100.00;100568.59;5031218;28;20038;-79
2023/08/05 00:38:53;;;;;;;13.10;7.28;;;13.70;99.90;;;15.19;100.00;100562.19;5030223;28;20385;-79
2023/08/05 00:41:18;;;;;;;16.13;7.88;;;13.70;99.90;;;15.19;100.00;100559.44;5031780;28;20037;-78
2023/08/05 00:43:44;;;;;;;13.63;7.22;;;13.80;99.90;;;15.28;100.00;100552.44;5014494;28;20038;-78
2023/08/05 00:46:12;;;;;;;12.77;7.22;;;13.80;99.90;;;15.20;100.00;100547.38;5044755;28;20025;-79
2023/08/05 00:48:38;;;;;;;12.85;7.10;;;13.80;99.90;;;15.30;100.00;100546.69;5040346;28;20037;-79
2023/08/05 00:51:07;;;;;;;11.30;6.80;;;13.80;99.90;;;15.32;100.00;100570.09;5030679;28;20081;-79
2023/08/05 00:53:36;;;;;;;11.32;7.03;;;13.60;99.90;;;15.21;100.00;100596.56;5029289;28;20041;-79
2023/08/05 00:56:02;;;;;;;9.52;6.50;;;13.50;99.90;;;15.05;100.00;100594.66;5013458;28;20077;-79
2023/08/05 00:58:31;;;;;;;12.00;6.40;;;13.30;99.90;;;15.01;100.00;100608.03;5023248;28;20481;-79
2023/08/05 01:00:57;;;;;;;12.95;6.15;;;13.20;99.90;;;14.89;100.00;100604.53;5013891;28;20121;-79
2023/08/05 01:03:23;;;;;;;10.10;6.00;;;13.20;99.90;;;14.78;100.00;100617.25;5026728;28;20450;-79
2023/08/05 01:05:52;;;;;;;12.30;6.43;;;13.00;99.90;;;14.66;100.00;100611.78;5024944;28;20068;-79
2023/08/05 01:08:21;;;;;;;10.27;6.10;;;12.90;99.90;;;14.59;100.00;100617.41;5030144;28;20038;-79
2023/08/05 01:10:47;;;;;;;13.52;7.05;;;12.80;99.90;;;14.50;100.00;100603.22;5044260;28;20040;-79
2023/08/05 01:13:13;;;;;;;15.40;6.97;;;12.80;99.90;;;14.38;100.00;100580.50;5029936;28;20034;-79
2023/08/05 01:15:39;;;;;;;9.77;6.47;;;12.80;99.90;;;14.46;100.00;100591.06;5030452;28;20539;-79
2023/08/05 01:18:08;;;;;;;12.95;7.10;;;12.80;99.90;;;14.36;100.00;100586.22;5043115;28;20029;-79
2023/08/05 01:20:50;;;;;;;10.65;6.38;;;12.70;99.90;;;14.35;100.00;100583.72;5027588;28;20042;-79
2023/08/05 01:23:26;;;;;;;10.98;6.75;;;12.60;99.90;;;14.27;100.00;100584.94;5029391;28;20104;-80
2023/08/05 01:25:52;;;;;;;10.68;5.80;;;12.60;99.90;;;14.12;100.00;100577.22;5030376;28;20369;-79
2023/08/05 01:28:20;;;;;;;13.13;6.70;;;12.40;99.90;;;14.10;100.00;100584.88;5039541;28;20049;-79
2023/08/05 01:30:47;;;;;;;9.32;6.10;;;12.40;99.90;;;14.01;100.00;100575.31;5029553;28;20038;-79
2023/08/05 01:33:14;;;;;;;11.48;7.18;;;12.30;99.90;;;14.07;100.00;100580.69;5023627;28;20131;-79
2023/08/05 01:35:48;;;;;;;13.45;8.23;;;12.30;99.90;;;14.13;100.00;100567.06;5026610;28;20034;-79
2023/08/05 01:38:15;;;;;;;13.80;7.93;;;12.40;99.90;;;14.17;100.00;100560.88;5026202;28;20382;-80
2023/08/05 01:40:41;;;;;;;14.15;8.05;;;12.40;99.90;;;14.21;100.00;100567.53;5030364;28;20040;-79
2023/08/05 01:43:07;;;;;;;12.88;7.47;;;12.50;99.90;;;14.19;100.00;100563.34;5030836;28;20033;-79
2023/08/05 01:45:33;;;;;;;15.07;7.95;;;12.50;99.90;;;14.15;100.00;100563.03;5023688;28;20037;-79
2023/08/05 01:47:59;;;;;;;11.93;7.70;;;12.50;99.90;;;14.19;100.00;100560.59;5044450;28;20060;-79
2023/08/05 01:50:25;;;;;;;15.43;8.60;;;12.50;99.90;;;14.22;100.00;100557.41;5029853;28;20046;-79
2023/08/05 01:52:53;;;;;;;16.38;8.70;;;12.50;99.90;;;14.23;100.00;100565.38;5029809;28;20033;-79
2023/08/05 01:55:19;;;;;;;;;;;12.50;99.90;;;14.25;100.00;100567.88;5030659;28;20109;-79
2023/08/05 01:57:46;;;;;;;14.77;8.23;;;12.50;99.90;;;14.17;100.00;100571.00;5044838;28;19956;-79
2023/08/05 02:00:12;;;;;;;15.00;8.43;;;12.50;99.90;;;14.19;100.00;100571.56;5027497;28;20461;-79
2023/08/05 02:02:41;;;;;;;13.07;8.10;;;12.50;99.90;;;14.10;100.00;100565.66;5025555;28;20053;-80
2023/08/05 02:05:07;;;;;;;15.63;8.95;;;12.50;99.90;;;14.20;100.00;100571.34;5029765;28;20055;-79
2023/08/05 02:07:33;;;;;;;14.15;8.50;;;12.40;99.90;;;14.03;100.00;100564.94;5024787;28;20057;-80
2023/08/05 02:09:59;;;;;;;16.25;8.60;;;12.40;99.90;;;14.01;100.00;100567.09;5029258;28;20029;-80
2023/08/05 02:12:24;;;;;;;54.67;11.38;;;12.30;99.90;;;13.94;100.00;100564.50;5040128;28;20034;-79
2023/08/05 02:14:51;;;;;;;16.60;7.43;;;12.30;99.90;;;13.91;100.00;100579.53;5044598;28;20061;-79
2023/08/05 02:17:16;;;;;;;13.15;7.60;;;12.30;99.90;;;13.80;100.00;100574.91;5028535;28;20034;-80
2023/08/05 02:19:43;;;;;;;19.05;9.32;;;12.20;99.90;;;13.73;100.00;100566.81;5019220;28;20432;-80
2023/08/05 02:22:08;;;;;;;12.25;8.50;;;12.10;99.90;;;13.73;100.00;100582.41;5026576;28;20478;-80
2023/08/05 02:24:34;;;;;;;22.73;9.95;;;12.10;99.90;;;13.73;100.00;100564.06;5018832;28;20037;-79
2023/08/05 02:27:00;;;;;;;18.45;9.82;;;12.10;99.90;;;14.30;100.00;100558.91;5026016;28;20080;-80
2023/08/05 02:29:26;;;;;;;19.92;10.90;;;12.10;99.90;;;13.77;100.00;100576.22;5027766;28;20052;-79
2023/08/05 02:31:52;;;;;;;19.38;9.57;;;12.10;99.90;;;13.55;100.00;100555.97;5020531;28;20033;-79
2023/08/05 02:34:17;;;;;;;18.98;9.02;;;12.00;99.90;;;13.38;100.00;100527.34;5026026;28;20029;-80
2023/08/05 02:36:43;;;;;;;22.10;11.23;;;11.90;99.90;;;14.03;100.00;100540.25;5027198;28;20383;-80
2023/08/05 02:39:10;;;;;;;19.65;10.65;;;11.80;99.90;;;14.31;100.00;100569.66;5013336;28;20038;-80
2023/08/05 02:41:36;;;;;;;17.70;10.23;;;11.90;99.90;;;14.35;100.00;100576.31;5024831;28;20041;-80
2023/08/05 02:44:02;;;;;;;21.63;11.00;;;12.00;99.90;;;13.41;100.00;100533.41;5029645;28;20099;-80
2023/08/05 02:46:28;;;;;;;19.17;10.10;;;12.00;99.90;;;13.37;100.00;100516.59;5029939;28;20484;-80
2023/08/05 02:48:53;;;;;;;20.02;11.02;;;11.90;99.90;;;13.48;100.00;100524.03;5018287;28;20033;-79
2023/08/05 02:51:19;;;;;;;20.58;10.82;;;11.90;99.90;;;13.43;100.00;100515.72;5023982;28;20121;-80
2023/08/05 02:53:45;;;;;;;16.38;10.30;;;12.00;99.90;;;13.91;100.00;100515.59;5018671;28;20509;-80
2023/08/05 02:56:12;;;;;;;26.40;12.38;;;11.90;99.90;;;14.29;100.00;100538.88;5021751;28;20045;-79
2023/08/05 02:58:38;;;;;;;18.92;10.02;;;11.90;99.90;;;13.63;100.00;100556.44;5019611;28;20525;-78
2023/08/05 03:01:06;;;;;;;23.90;11.82;;;11.90;99.90;;;14.26;100.00;100571.44;5020078;28;20052;-79
2023/08/05 03:03:32;;;;;;;22.02;11.50;;;11.90;99.90;;;14.27;100.00;100573.97;5022258;28;20496;-79
2023/08/05 03:05:59;;;;;;;19.80;10.63;;;11.90;99.90;;;13.58;100.00;100548.09;5031781;28;20030;-79
2023/08/05 03:08:24;;;;;;;27.13;13.10;;;12.00;99.90;;;13.61;100.00;100525.69;5017864;28;20425;-79
2023/08/05 03:11:01;;;;;;;25.70;12.38;;;12.10;99.90;;;13.63;100.00;100501.63;5028657;28;20354;-79
2023/08/05 03:13:28;;;;;;;21.65;12.48;;;12.20;99.90;;;13.76;100.00;100494.19;5038802;28;20030;-79
2023/08/05 03:16:11;;;;;;;26.45;13.30;;;12.30;99.90;;;13.89;100.00;100490.34;5040546;28;20037;-79
2023/08/05 03:18:41;;;;;;;25.48;13.48;;;12.40;99.90;;;13.98;100.00;100485.31;5018592;28;20113;-80
2023/08/05 03:21:08;;;;;;;22.77;11.65;;;12.50;99.90;;;14.05;100.00;100486.00;5041009;28;20060;-79
2023/08/05 03:23:36;;;;;;;26.83;13.52;;;12.50;99.90;;;14.10;100.00;100488.84;5019024;28;20173;-79
2023/08/05 03:26:02;;;;;;;21.67;12.35;;;12.60;99.90;;;14.14;100.00;100487.28;5026690;28;20393;-79
2023/08/05 03:28:29;;;;;;;29.83;13.32;;;12.60;99.90;;;14.16;100.00;100489.78;5038428;28;20026;-78
2023/08/05 03:30:55;;;;;;;23.23;12.15;;;12.70;99.90;;;14.22;100.00;100488.81;5026552;28;20040;-79
2023/08/05 03:33:25;;;;;;;24.65;11.77;;;12.70;99.90;;;14.25;100.00;100482.84;5015469;28;20036;-79
2023/08/05 03:35:52;;;;;;;23.25;11.50;;;12.70;99.90;;;14.23;100.00;100479.50;5025386;28;20037;-79
2023/08/05 03:38:21;;;;;;;23.73;11.38;;;12.70;99.90;;;14.20;100.00;100499.22;5035577;28;20124;-79
2023/08/05 03:40:47;;;;;;;22.33;10.98;;;12.70;99.90;;;14.12;100.00;100516.88;5023895;28;20482;-79
2023/08/05 03:43:14;;;;;;;23.38;12.25;;;12.60;99.90;;;14.09;100.00;100504.47;5028647;28;20557;-78
2023/08/05 03:45:40;;;;;;;19.77;10.85;;;12.60;99.90;;;14.22;100.00;100514.31;5038242;28;20117;-78
2023/08/05 03:48:06;;;;;;;22.27;12.02;;;12.70;99.90;;;14.28;100.00;100506.19;5035036;28;20033;-77
2023/08/05 03:50:33;;;;;;;25.83;13.60;;;12.70;99.90;;;14.26;100.00;100494.63;5029483;28;20373;-78
2023/08/05 03:52:59;;;;;;;28.77;14.10;;;12.70;99.90;;;14.19;100.00;100489.28;5026805;28;20025;-78
2023/08/05 03:55:26;;;;;;;26.60;13.70;;;12.80;99.90;;;14.30;100.00;100477.44;5024339;28;20041;-78
2023/08/05 03:57:51;;;;;;;24.58;12.70;;;12.80;99.90;;;14.42;100.00;100477.38;5015530;28;20104;-78
2023/08/05 04:00:17;;;;;;;25.80;12.93;;;12.90;99.90;;;14.46;100.00;100469.50;5029253;28;20029;-78
2023/08/05 04:02:44;;;;;;;30.83;13.20;;;12.90;99.90;;;14.51;100.00;100475.88;5042706;28;20022;-79
2023/08/05 04:05:10;;;;;;;25.98;12.57;;;12.90;99.90;;;14.55;100.00;100478.13;5019730;28;20041;-80
2023/08/05 04:07:36;;;;;;;24.70;12.48;;;13.00;99.90;;;14.56;100.00;100475.16;5028459;28;20670;-78
2023/08/05 04:10:05;;;;;;;26.27;12.83;;;13.00;99.90;;;14.62;100.00;100473.34;5025801;28;20166;-79
2023/08/05 04:12:33;;;;;;;28.92;14.82;;;13.00;99.90;;;14.63;100.00;100475.81;5012334;28;20038;-79
2023/08/05 04:15:00;;;;;;;27.63;13.43;;;13.10;99.90;;;14.72;100.00;100484.50;5019696;28;20358;-79
2023/08/05 04:17:28;;;;;;;22.42;12.82;;;13.10;99.90;;;14.74;100.00;100489.78;5038260;28;20040;-78
2023/08/05 04:19:54;;;;;;;25.63;13.32;;;13.10;99.90;;;14.72;100.00;100480.91;5017736;28;20038;-78
2023/08/05 04:22:22;;;;;;;25.80;13.45;;;13.20;99.90;;;14.78;100.00;100488.19;5011296;28;20041;-78
2023/08/05 04:24:47;;;;;;;;;;;13.20;99.90;;;14.85;100.00;100488.00;5029856;28;20378;-78
2023/08/05 04:27:13;;;;;;;25.02;12.02;;;13.20;99.90;;;14.89;100.00;100490.00;5023864;28;19917;-78
2023/08/05 04:29:39;;;;;;;27.10;12.98;;;13.30;99.90;;;14.80;100.00;100497.81;5021034;28;20034;-80
2023/08/05 04:32:05;;;;;;;27.92;13.55;;;13.30;99.90;;;14.93;100.00;100490.34;5022087;28;20034;-78
2023/08/05 04:34:36;;;;;;;28.02;12.80;;;13.30;99.90;;;14.94;100.00;100478.28;5015382;28;20030;-79
2023/08/05 04:37:34;;;;;;;23.70;12.85;;;13.40;99.90;;;15.02;100.00;100466.03;5019175;28;20043;-78
2023/08/05 04:40:00;;;;;;;25.48;12.93;;;13.50;99.90;;;15.02;100.00;100458.63;5009508;28;20072;-80
2023/08/05 04:42:26;;;;;;;25.98;13.25;;;13.50;99.90;;;15.17;100.00;100481.94;5020254;28;20072;-77
2023/08/05 04:44:52;;;;;;;28.77;12.40;;;13.50;99.90;;;15.23;100.00;100486.41;5029870;28;20393;-78
2023/08/05 04:47:17;;;;;;;24.33;13.13;;;13.60;99.90;;;15.24;100.00;100479.81;5038528;28;20040;-79
2023/08/05 04:49:44;;;;;;;25.63;13.05;;;13.50;99.90;;;15.23;100.00;100489.97;5022337;28;20030;-78
2023/08/05 04:52:12;;;;;;;23.48;13.23;;;13.60;99.90;;;15.27;100.00;100478.50;5019896;28;20133;-79
2023/08/05 04:54:44;;;;;;;23.67;12.70;;;13.60;99.90;;;15.35;100.00;100486.31;5054128;28;20052;-79
2023/08/05 04:57:12;;;;;;;27.85;12.90;;;13.70;99.90;;;15.28;100.00;100486.47;5034772;28;20049;-79
2023/08/05 04:59:39;;;;;;;26.27;13.30;;;13.70;99.90;;;15.42;100.00;100478.72;5031026;28;20042;-78
2023/08/05 05:02:06;;;;;;;26.63;13.43;;;13.80;99.90;;;15.31;100.00;100463.16;5026861;28;20033;-78
2023/08/05 05:04:32;;;;;;;26.90;13.65;;;13.80;99.90;;;15.42;100.00;100480.63;5030351;28;20049;-79
2023/08/05 05:06:58;;;;;;;26.52;13.57;;;13.90;99.90;;;15.55;100.00;100474.75;5025706;28;20030;-78
2023/08/05 05:09:24;;;;;;;28.35;13.50;;;13.90;99.90;;;15.63;100.00;100482.56;5037073;28;20044;-78
2023/08/05 05:11:50;;;;;;;26.98;13.27;;;14.00;99.90;;;15.73;100.00;100481.03;5023809;28;20045;-77
2023/08/05 05:14:16;;;;;;;27.17;14.25;;;14.10;99.90;;;15.80;100.00;100490.78;5028029;28;20038;-78
2023/08/05 05:16:42;;;;;;;25.15;13.52;;;14.10;99.90;;;15.84;100.00;100491.06;5023619;28;20501;-77
2023/08/05 05:19:07;;;;;;;25.92;13.32;;;14.20;99.90;;;15.92;100.00;100490.69;5027275;28;20045;-77
2023/08/05 05:21:33;;;;;;;25.30;12.48;;;14.20;99.90;;;15.97;100.00;100503.66;5029832;28;20107;-78
2023/08/05 05:23:59;;;;;;;24.80;13.05;;;14.30;99.90;;;16.01;100.00;100509.47;5029779;28;20037;-77
2023/08/05 05:26:25;;;;;;;24.30;13.52;;;14.30;99.90;;;16.01;100.00;100515.78;5018746;28;20042;-77
2023/08/05 05:28:51;;;;;;;28.13;12.60;;;14.40;99.90;;;16.10;100.00;100514.28;5025337;28;20029;-79
2023/08/05 05:31:16;;;;;;;22.33;12.20;;;14.40;99.90;;;16.17;100.00;100502.22;5042027;28;20518;-79
2023/08/05 05:33:47;;;;;;;19.58;11.65;;;14.50;99.90;;;16.38;100.00;100506.88;5022163;28;20089;-81
2023/08/05 05:36:14;;;;;;;21.88;11.75;;;14.70;99.90;;;16.41;100.00;100530.28;5021840;28;20092;-80
2023/08/05 05:38:40;;;;;;;17.80;11.23;;;14.70;99.90;;;16.40;100.00;100525.88;5017817;28;20937;-80
2023/08/05 05:41:05;;;;;;;20.65;11.48;;;14.70;99.90;;;16.34;100.00;100541.50;5027214;28;20044;-80
2023/08/05 05:43:31;;;;;;;23.38;11.85;;;14.70;99.90;;;16.38;100.00;100541.81;5020878;28;20063;-79
2023/08/05 05:45:57;;;;;;;24.95;12.27;;;14.70;99.90;;;16.38;100.00;100525.28;5027073;28;20117;-77
2023/08/05 05:48:24;;;;;;;23.10;13.38;;;14.70;99.90;;;16.47;100.00;100540.28;5028410;28;20508;-79
2023/08/05 05:50:52;;;;;;;18.27;11.63;;;14.80;99.90;;;16.59;100.00;100558.56;5031159;28;20114;-79
2023/08/05 05:53:18;;;;;;;19.63;11.77;;;14.90;99.90;;;16.69;100.00;100558.66;5051699;28;20038;-78
2023/08/05 05:55:46;;;;;;;22.88;11.63;;;15.00;99.90;;;16.78;100.00;100567.28;5020032;28;20091;-78
2023/08/05 05:58:13;;;;;;;19.10;10.88;;;15.00;99.90;;;16.81;100.00;100586.03;5024735;28;20038;-79
2023/08/05 06:00:39;;;;;;;19.90;11.20;;;15.10;99.90;;;16.86;100.00;100588.03;5020095;28;20440;-79
2023/08/05 06:03:09;;;;;;;18.45;10.20;;;15.10;99.90;;;16.91;100.00;100583.41;5019418;28;20034;-79
2023/08/05 06:05:35;;;;;;;15.07;10.00;;;15.20;99.90;;;16.96;100.00;100586.19;5025567;28;20188;-79
2023/08/05 06:08:00;;;;;;;17.10;10.45;;;15.20;99.90;;;17.09;100.00;100593.22;5022520;28;20034;-80
2023/08/05 06:10:26;;;;;;;17.33;10.45;;;15.30;99.90;;;17.18;100.00;100601.00;5030269;28;20053;-79
2023/08/05 06:12:52;;;;;;;18.55;10.82;;;15.40;99.90;;;17.29;100.00;100601.94;5025098;28;20045;-80
2023/08/05 06:15:18;;;;;;;15.82;9.65;;;15.50;99.90;;;17.16;100.00;100620.59;5037992;28;20037;-80
2023/08/05 06:17:45;;;;;;;15.80;9.85;;;15.50;99.90;;;17.20;100.00;100618.97;5047372;28;20029;-80
2023/08/05 06:20:11;;;;;;;15.52;9.38;;;15.50;99.90;;;17.26;100.00;100611.59;5037591;28;20057;-80
2023/08/05 06:22:38;;;;;;;16.40;9.35;;;15.50;99.90;;;17.47;100.00;100636.53;5032908;28;20068;-80
2023/08/05 06:25:04;;;;;;;12.57;8.32;;;15.60;99.90;;;17.56;100.00;100636.88;5035459;28;20045;-79
2023/08/05 06:27:30;;;;;;;12.48;8.25;;;15.70;99.90;;;18.02;100.00;100637.22;5042476;28;20454;-80
2023/08/05 06:29:56;;;;;;;14.80;8.80;;;15.80;99.90;;;17.57;100.00;100644.91;5020243;28;20041;-80
2023/08/05 06:32:21;;;;;;;12.55;8.20;;;15.90;99.90;;;18.18;100.00;100654.72;5020365;28;20033;-79
2023/08/05 06:34:47;;;;;;;12.07;8.52;;;16.00;99.90;;;18.23;100.00;100678.75;5026112;28;20105;-78
2023/08/05 06:37:13;;;;;;;13.75;7.72;;;16.00;99.90;;;17.95;100.00;100673.31;5024776;28;20033;-78
2023/08/05 06:39:38;;;;;;;12.32;7.95;;;16.20;99.90;;;18.11;100.00;100654.13;5016104;28;20061;-78
2023/08/05 06:42:04;;;;;;;10.32;6.55;;;16.20;99.90;;;18.21;100.00;100687.31;5036137;28;20045;-78
2023/08/05 06:44:37;;;;;;;11.63;7.43;;;16.40;99.90;;;17.93;100.00;100691.25;5018695;28;20038;-77
2023/08/05 06:47:04;;;;;;;13.20;7.20;;;16.40;99.90;;;17.98;100.00;100672.78;5017166;28;20041;-83
2023/08/05 06:49:29;;;;;;;9.02;6.55;;;16.40;99.90;;;18.30;100.00;100676.59;5031850;28;20136;-82
2023/08/05 06:51:55;;;;;;;10.02;7.25;;;16.60;99.90;;;18.37;100.00;100685.44;5031814;28;20037;-80
2023/08/05 06:54:21;;;;;;;9.38;6.47;;;16.80;99.90;;;18.52;100.00;100679.16;5025514;28;20029;-83
2023/08/05 06:56:47;;;;;;;12.02;6.60;;;16.90;99.90;;;18.74;100.00;100682.84;5033439;28;20037;-82
2023/08/05 06:59:12;;;;;;;10.73;6.60;;;17.10;99.90;;;19.04;100.00;100697.91;5041478;28;20033;-83
2023/08/05 07:01:40;;;;;;;13.27;6.57;;;17.30;99.90;;;19.03;100.00;100683.22;5030574;28;20042;-83
2023/08/05 07:04:06;;;;;;;13.40;6.78;;;17.50;99.90;;;19.15;100.00;100687.69;5017643;28;20037;-82
2023/08/05 07:06:31;;;;;;;10.30;7.45;;;17.60;99.90;;;19.44;100.00;100679.69;5022493;28;20056;-81
2023/08/05 07:08:57;;;;;;;13.27;6.85;;;17.80;99.90;;;19.34;100.00;100668.63;5017375;28;20030;-83
2023/08/05 07:11:23;;;;;;;13.57;6.70;;;17.90;99.90;;;19.56;100.00;100690.47;5031739;28;20039;-84
2023/08/05 07:13:50;;;;;;;11.05;5.80;;;18.00;99.90;;;19.23;100.00;100685.22;5025682;28;20049;-85
2023/08/05 07:16:15;;;;;;;11.67;6.27;;;18.10;99.90;;;19.31;100.00;100697.66;5024967;28;20144;-84
2023/08/05 07:18:42;;;;;;;10.20;6.15;;;18.00;99.90;;;19.56;100.00;100687.72;5022836;28;20812;-84
2023/08/05 07:21:08;;;;;;;8.73;5.05;;;18.00;99.90;;;19.68;100.00;100702.13;5015994;28;20046;-84
2023/08/05 07:23:34;;;;;;;11.80;5.20;;;18.20;99.90;;;19.86;100.00;100691.56;5026269;28;20029;-81
2023/08/05 07:26:01;;;;;;;7.53;4.28;;;18.30;99.90;;;19.48;100.00;100707.66;5020749;28;20401;-81
2023/08/05 07:28:27;;;;;;;;;;;18.30;99.90;;;19.86;100.00;100708.19;5031380;28;20401;-82
2023/08/05 07:31:05;;;;;;;7.03;4.15;;;18.30;99.90;;;19.91;100.00;100708.22;5029202;28;19948;-82
2023/08/05 07:33:33;;;;;;;8.15;3.38;;;18.40;99.90;;;20.13;100.00;100707.06;5012867;28;20037;-81
2023/08/05 07:36:22;;;;;;;6.50;3.25;;;18.50;99.90;;;20.06;100.00;100714.84;5018430;28;20033;-83
2023/08/05 07:38:49;;;;;;;5.93;3.10;;;18.70;99.90;;;20.43;100.00;100716.44;5025963;28;20042;-84
2023/08/05 07:41:16;;;;;;;8.35;3.15;;;18.90;99.90;;;20.59;100.00;100713.59;5033722;28;20029;-84
2023/08/05 07:43:43;;;;;;;8.10;3.00;;;19.00;99.90;;;20.77;100.00;100712.13;5031063;28;20103;-82
2023/08/05 07:46:13;;;;;;;8.50;3.40;;;19.10;99.90;;;20.68;100.00;100706.34;5023975;28;20037;-83
2023/08/05 07:48:40;;;;;;;7.82;2.83;;;19.30;99.90;;;20.82;100.00;100707.44;5027250;28;20496;-82
2023/08/05 07:51:07;;;;;;;6.10;3.17;;;19.40;99.90;;;21.10;100.00;100710.59;5021820;28;20432;-84
2023/08/05 07:53:36;;;;;;;7.20;3.00;;;19.80;99.90;;;21.37;100.00;100701.00;5023939;28;20398;-84
2023/08/05 07:56:10;;;;;;;5.82;2.30;;;20.00;99.90;;;21.48;100.00;100709.22;5021928;28;20065;-85
2023/08/05 07:58:42;;;;;;;5.03;2.15;;;20.30;99.90;;;21.99;100.00;100689.38;5025932;28;20066;-85
2023/08/05 08:01:13;;;;;;;4.97;2.20;;;20.20;99.90;;;21.78;100.00;100702.63;5028031;28;20094;-85
2023/08/05 08:03:56;;;;;;;8.50;2.33;;;20.40;99.90;;;21.91;100.00;100703.91;5025906;28;20042;-85
2023/08/05 08:06:26;;;;;;;6.85;2.33;;;20.50;99.90;;;21.70;100.00;100711.59;5026234;28;20049;-85
2023/08/05 08:08:52;;;;;;;6.40;1.85;;;20.50;99.90;;;21.50;100.00;100699.50;5024570;28;20033;-86
2023/08/05 08:11:18;;;;;;;4.53;2.28;;;20.40;99.90;;;21.62;100.00;100707.47;5016008;28;20033;-86
2023/08/05 08:13:43;;;;;;;6.25;2.50;;;20.50;99.90;;;21.21;100.00;100707.75;5029226;28;20042;-86
2023/08/05 08:16:09;;;;;;;7.47;2.33;;;20.30;99.90;;;21.18;100.00;100705.56;5026191;28;20065;-86
2023/08/05 08:18:36;;;;;;;4.18;2.00;;;20.20;99.90;;;21.18;100.00;100694.47;5028130;28;20048;-87
2023/08/05 08:21:03;;;;;;;5.82;2.00;;;20.10;99.90;;;21.16;100.00;100683.69;5027187;28;20034;-87
2023/08/05 08:23:29;;;;;;;6.82;2.63;;;20.00;99.90;;;21.13;100.00;100667.63;5024683;28;20033;-86
2023/08/05 08:25:58;;;;;;;5.28;2.30;;;20.00;99.90;;;21.00;100.00;100682.09;5029076;28;20037;-86
2023/08/05 08:28:28;;;;;;;5.80;2.30;;;20.10;99.90;;;21.44;100.00;100686.81;5016298;28;20371;-85
2023/08/05 08:30:56;;;;;;;4.38;2.33;;;20.10;99.90;;;21.41;100.00;100685.41;5025087;28;20128;-86
2023/08/05 08:33:24;;;;;;;6.38;2.65;;;20.10;99.90;;;21.46;100.00;100686.50;5024818;28;20034;-85
2023/08/05 08:35:50;;;;;;;6.82;2.60;;;20.30;99.90;;;21.64;100.00;100666.41;5041848;28;20034;-86
2023/08/05 08:38:17;;;;;;;5.85;2.40;;;20.40;99.90;;;21.85;100.00;100680.09;5019894;28;20030;-85
2023/08/05 08:40:47;;;;;;;5.73;2.70;;;20.60;99.90;;;22.11;100.00;100675.09;5030176;28;20033;-86
2023/08/05 08:43:21;;;;;;;9.50;2.70;;;20.80;99.90;;;21.96;100.00;100676.09;5017934;28;20042;-87
2023/08/05 08:45:50;;;;;;;6.47;2.55;;;20.90;99.90;;;21.77;100.00;100669.63;5026103;28;20143;-87
2023/08/05 08:48:17;;;;;;;6.03;2.40;;;21.00;99.90;;;22.19;100.00;100665.28;5026042;28;20029;-86
2023/08/05 08:50:44;;;;;;;7.43;2.83;;;;;;;23.55;100.00;100659.56;5018452;28;20433;-86
2023/08/05 08:53:12;;;;;;;5.07;2.38;;;;;;;24.09;100.00;100648.88;5019657;28;20041;-87
2023/08/05 08:55:39;;;;;;;8.65;2.40;;;;;;;23.98;100.00;100645.41;5036509;28;20073;-87
2023/08/05 08:58:05;;;;;;;7.43;2.30;;;21.00;99.90;;;23.54;100.00;100622.56;5031010;28;20033;-85
2023/08/05 09:00:34;;;;;;;6.40;2.55;;;21.90;99.90;;;22.81;100.00;100639.53;5027211;28;20033;-86
2023/08/05 09:03:03;;;;;;;6.65;2.67;;;21.70;99.90;;;23.13;100.00;100629.59;5019764;28;20444;-87
2023/08/05 09:05:35;;;;;;;7.95;2.33;;;21.50;99.90;;;23.48;100.00;100629.34;5023391;28;20044;-85
2023/08/05 09:08:03;;;;;;;6.88;2.28;;;;;;;24.23;100.00;100629.38;5026410;28;20096;-87
2023/08/05 09:10:29;;;;;;;4.82;2.10;;;21.40;99.90;;;24.58;98.29;100616.94;5032766;28;20068;-87
2023/08/05 09:13:00;;;;;;;8.15;2.20;;;;;;;24.99;96.29;100628.00;5018100;28;20149;-87
2023/08/05 09:15:53;;;;;;;5.95;2.28;;;22.30;99.90;;;23.44;100.00;100630.25;5016097;28;20038;-86
2023/08/05 09:18:19;;;;;;;4.85;2.25;;;22.70;99.90;;;23.66;100.00;100644.34;5020939;28;20049;-87
2023/08/05 09:20:49;;;;;;;4.45;2.13;;;22.50;99.90;;;23.59;100.00;100638.31;5033274;28;20090;-87
2023/08/05 09:23:15;;;;;;;5.68;2.20;;;22.40;99.90;;;23.62;100.00;100631.31;5028651;28;20084;-87
2023/08/05 09:25:46;;;;;;;3.70;1.90;;;22.40;99.90;;;24.04;95.31;100625.84;5021445;28;20061;-85
2023/08/05 09:28:12;;;;;;;4.05;2.10;;;22.60;99.90;;;24.12;92.39;100625.13;5022018;28;20072;-86
2023/08/05 09:30:38;;;;;;;6.28;2.50;;;22.90;99.90;;;24.17;98.21;100636.19;5024414;28;20441;-86
2023/08/05 09:33:05;;;;;;;4.35;1.83;;;22.90;99.90;;;24.02;95.78;100617.81;5025134;28;20052;-86
2023/08/05 09:35:30;;;;;;;6.87;1.97;;;22.90;99.90;;;24.01;86.23;100620.84;5023260;28;20433;-85
2023/08/05 09:37:56;;;;;;;4.10;1.70;;;22.80;97.90;;;24.10;86.32;100610.66;5026989;28;20052;-85
2023/08/05 09:40:28;;;;;;;4.00;1.77;;;22.70;98.00;;;24.47;84.55;100608.78;5039044;28;20045;-85
2023/08/05 09:43:03;;;;;;;5.30;1.88;;;;;;;25.07;81.35;100601.31;5015422;28;20037;-86
2023/08/05 09:45:33;;;;;;;4.65;1.70;;;;;;;24.74;81.55;100597.88;5031101;28;20091;-87
2023/08/05 09:48:10;;;;;;;6.05;1.80;;;;;;;22.97;93.19;100600.34;5023788;28;20045;-87
2023/08/05 09:50:38;;;;;;;4.97;1.90;;;22.80;97.60;;;22.60;100.00;100580.59;5023978;28;20061;-85
2023/08/05 09:53:10;;;;;;;2.67;1.63;;;22.10;97.60;;;24.05;88.31;100588.50;5038009;28;20108;-89
2023/08/05 09:55:39;;;;;;;6.65;2.10;;;;;;;23.63;90.96;100583.69;5060483;28;20046;-86
2023/08/05 09:58:09;;;;;;;4.85;1.95;;;;;;;24.95;81.74;100587.13;5030255;28;20042;-84
2023/08/05 10:00:41;;;;;;;4.38;1.73;;;;;;;25.72;76.65;100584.31;5026472;28;20045;-82
2023/08/05 10:03:13;;;;;;;3.70;1.75;;;;;;;26.10;69.07;100575.41;5015375;28;20038;-84
2023/08/05 10:05:41;;;;;;;3.33;1.67;;;;;;;25.49;73.39;100578.78;5033826;28;20071;-86
2023/08/05 10:08:08;;;;;;;5.93;1.85;;;;;;;26.45;72.16;100583.09;5026220;28;20055;-87